Fort Plain, New York
Current Conditions -  °F | °C
As of 9:55 PM on Tuesday 21 Oct 2014 (Local Time) from KNY0 Reporting Station
Overcast Overcast  
Wind Chill: 44°   Ceiling: 900
Heat Index: 47°   Visibility: 10mi
Dew Point: 45°   Wind: 8mph
Humidity: 90%   Direction: 30°NNE
Pressure: 30"   Gusts: NA
Location:  42.93°N, 74.62°W
Report Text: KNY0 220155Z AUTO 03007KT 10SM OVC009 09/07 A3000 RMK AO2 T00860070
Loading
Personal Weather Stations






























Interactive Weather Map
Tropical Storm Tracking
New forecast layout! Learn more

10-Day Weather Forecast

Advertisements
Track Severe Weather on mobile